createdAt,value
2023-02-20T00:00:52.172Z,3.88
2023-02-20T00:03:19.344Z,3.87
2023-02-20T00:05:46.391Z,3.86
2023-02-20T00:08:13.455Z,3.90
2023-02-20T00:10:40.478Z,3.90
2023-02-20T00:13:07.518Z,3.94
2023-02-20T00:15:34.558Z,3.92
2023-02-20T00:18:01.649Z,3.92
2023-02-20T00:20:30.354Z,3.90
2023-02-20T00:22:57.463Z,3.87
2023-02-20T00:25:24.554Z,3.92
2023-02-20T00:27:51.734Z,3.90
2023-02-20T00:30:24.106Z,3.93
2023-02-20T00:32:53.933Z,3.96
2023-02-20T00:35:21.817Z,3.82
2023-02-20T00:37:49.616Z,3.93
2023-02-20T00:40:19.837Z,4.00
2023-02-20T00:42:47.039Z,4.03
2023-02-20T00:45:17.111Z,3.90
2023-02-20T00:47:44.412Z,3.84
2023-02-20T00:50:16.707Z,3.90
2023-02-20T00:52:44.067Z,3.82
2023-02-20T00:55:12.145Z,3.84
2023-02-20T00:57:39.238Z,3.82
2023-02-20T01:00:13.058Z,3.93
2023-02-20T01:02:40.090Z,3.91
2023-02-20T01:05:07.334Z,3.86
2023-02-20T01:07:34.360Z,3.85
2023-02-20T01:10:01.369Z,3.84
2023-02-20T01:12:28.477Z,3.78
2023-02-20T01:14:55.774Z,3.83
2023-02-20T01:17:22.795Z,3.82
2023-02-20T01:19:49.911Z,3.83
2023-02-20T01:22:16.964Z,3.85
2023-02-20T01:24:43.995Z,3.83
2023-02-20T01:27:11.263Z,3.85
2023-02-20T01:29:38.284Z,3.81
2023-02-20T01:32:05.403Z,3.69
2023-02-20T01:34:32.570Z,3.83
2023-02-20T01:37:00.212Z,3.78
2023-02-20T01:39:31.011Z,3.75
2023-02-20T01:42:04.063Z,3.83
2023-02-20T01:44:35.674Z,3.86
2023-02-20T01:47:07.946Z,3.90
2023-02-20T01:53:44.561Z,3.78
2023-02-20T01:56:12.830Z,3.85
2023-02-20T01:58:48.311Z,3.80
2023-02-20T02:01:15.658Z,3.76
2023-02-20T02:03:47.966Z,3.78
2023-02-20T02:06:16.917Z,3.81
2023-02-20T02:08:45.432Z,3.81
2023-02-20T02:11:24.138Z,3.82
2023-02-20T02:13:51.558Z,3.94
2023-02-20T02:16:55.313Z,3.85
2023-02-20T02:19:47.061Z,3.86
2023-02-20T02:22:38.731Z,3.84
2023-02-20T02:25:38.499Z,3.81
2023-02-20T02:28:49.886Z,3.80
2023-02-20T02:32:03.105Z,3.79
2023-02-20T02:35:11.206Z,3.82
2023-02-20T02:38:26.393Z,3.92
2023-02-20T02:41:02.114Z,3.90
2023-02-20T02:44:13.180Z,3.84
2023-02-20T02:47:03.073Z,3.75
2023-02-20T02:49:38.583Z,3.81
2023-02-20T02:52:07.244Z,3.84
2023-02-20T02:54:34.256Z,3.93
2023-02-20T02:57:28.402Z,3.86
2023-02-20T03:00:09.401Z,3.90
2023-02-20T03:03:10.177Z,3.97
2023-02-20T03:05:56.864Z,3.90
2023-02-20T03:08:39.299Z,3.92
2023-02-20T03:11:18.153Z,3.90
2023-02-20T03:14:17.017Z,3.87
2023-02-20T03:17:14.446Z,3.86
2023-02-20T03:19:51.223Z,3.95
2023-02-20T03:22:29.250Z,3.90
2023-02-20T03:25:31.427Z,3.80
2023-02-20T03:28:07.509Z,3.82
2023-02-20T03:30:49.914Z,3.92
2023-02-20T03:34:08.943Z,3.89
2023-02-20T03:37:04.350Z,3.72
2023-02-20T03:39:56.162Z,3.87
2023-02-20T03:42:43.396Z,3.83
2023-02-20T03:45:12.422Z,3.81
2023-02-20T03:47:44.744Z,3.77
2023-02-20T03:50:13.561Z,3.72
2023-02-20T03:52:41.547Z,3.74
2023-02-20T03:55:09.722Z,3.76
2023-02-20T03:57:44.670Z,3.74
2023-02-20T04:00:16.451Z,3.64
2023-02-20T04:02:47.916Z,3.69
2023-02-20T04:05:23.155Z,3.65
2023-02-20T04:08:16.003Z,3.68
2023-02-20T04:10:51.444Z,3.74
2023-02-20T04:13:19.545Z,3.72
2023-02-20T04:15:48.589Z,3.70
2023-02-20T04:18:19.508Z,3.53
2023-02-20T04:20:55.246Z,3.60
2023-02-20T04:23:25.502Z,3.70
2023-02-20T04:26:20.006Z,3.69
2023-02-20T04:28:47.850Z,3.68
2023-02-20T04:31:17.431Z,3.62
2023-02-20T04:33:44.529Z,3.63
2023-02-20T04:36:12.149Z,3.60
2023-02-20T04:38:39.349Z,3.59
2023-02-20T04:41:06.435Z,3.60
2023-02-20T04:43:33.523Z,3.67
2023-02-20T04:46:00.652Z,3.58
2023-02-20T04:48:27.748Z,3.68
2023-02-20T04:50:54.886Z,3.69
2023-02-20T04:53:21.893Z,3.67
2023-02-20T04:55:48.893Z,3.57
2023-02-20T04:58:16.215Z,3.52
2023-02-20T05:00:43.236Z,3.57
2023-02-20T05:03:10.322Z,3.55
2023-02-20T05:05:37.330Z,3.58
2023-02-20T05:08:07.392Z,3.58
2023-02-20T05:10:36.145Z,3.57
2023-02-20T05:13:03.345Z,3.69
2023-02-20T05:15:31.681Z,3.68
2023-02-20T05:17:58.902Z,3.69
2023-02-20T05:20:45.868Z,3.63
2023-02-20T05:23:13.548Z,3.61
2023-02-20T05:25:40.776Z,3.60
2023-02-20T05:28:07.915Z,3.60
2023-02-20T05:30:34.993Z,3.63
2023-02-20T05:33:02.026Z,3.64
2023-02-20T05:35:29.051Z,3.77
2023-02-20T05:37:56.065Z,3.78
2023-02-20T05:40:23.117Z,3.83
2023-02-20T05:42:50.211Z,3.76
2023-02-20T05:45:17.409Z,3.79
2023-02-20T05:47:44.414Z,3.79
2023-02-20T05:50:11.457Z,3.79
2023-02-20T05:52:38.513Z,3.79
2023-02-20T05:55:06.079Z,3.68
2023-02-20T05:57:33.160Z,3.69
2023-02-20T06:00:00.235Z,3.82
2023-02-20T06:02:27.291Z,3.79
2023-02-20T06:04:55.344Z,3.85
2023-02-20T06:07:22.409Z,3.78
2023-02-20T06:09:49.775Z,3.83
2023-02-20T06:12:16.877Z,3.86
2023-02-20T06:14:44.644Z,3.82
2023-02-20T06:17:11.649Z,3.86
2023-02-20T06:19:38.709Z,3.92
2023-02-20T06:22:06.353Z,4.00
2023-02-20T06:24:33.448Z,3.95
2023-02-20T06:27:01.300Z,4.11
2023-02-20T06:29:29.119Z,4.01
2023-02-20T06:32:00.246Z,4.11
2023-02-20T06:34:31.633Z,4.07
2023-02-20T06:37:04.529Z,4.04
2023-02-20T06:39:33.348Z,4.11
2023-02-20T06:42:00.456Z,4.14
2023-02-20T06:44:27.583Z,4.25
2023-02-20T06:46:54.747Z,4.26
2023-02-20T06:49:21.867Z,4.20
2023-02-20T06:51:52.269Z,4.30
2023-02-20T06:54:22.026Z,4.38
2023-02-20T06:56:49.073Z,4.41
2023-02-20T06:59:16.192Z,4.57
2023-02-20T07:01:44.054Z,4.71
2023-02-20T07:04:29.207Z,4.77
2023-02-20T07:06:56.455Z,4.93
2023-02-20T07:09:25.197Z,5.02
2023-02-20T07:11:54.770Z,5.11
2023-02-20T07:14:22.487Z,5.19
2023-02-20T07:16:49.626Z,5.28
2023-02-20T07:19:16.621Z,5.60
2023-02-20T07:21:43.655Z,5.70
2023-02-20T07:24:10.657Z,5.76
2023-02-20T07:26:39.514Z,5.74
2023-02-20T07:29:07.673Z,5.70
2023-02-20T07:31:34.918Z,5.87
2023-02-20T07:34:02.061Z,5.93
2023-02-20T07:36:29.071Z,6.02
2023-02-20T07:38:58.712Z,6.08
2023-02-20T07:41:29.662Z,5.92
2023-02-20T07:43:57.444Z,5.83
2023-02-20T07:46:24.745Z,5.78
2023-02-20T07:48:53.346Z,5.75
2023-02-20T07:51:20.521Z,5.79
2023-02-20T07:53:53.179Z,6.04
2023-02-20T07:56:21.424Z,6.03
2023-02-20T07:58:49.441Z,6.11
2023-02-20T08:01:17.608Z,6.15
2023-02-20T08:03:44.826Z,6.20
2023-02-20T08:06:12.581Z,6.30
2023-02-20T08:08:39.778Z,6.49
2023-02-20T08:11:09.876Z,6.34
2023-02-20T08:13:38.118Z,6.46
2023-02-20T08:16:05.708Z,6.32
2023-02-20T08:18:32.797Z,6.37
2023-02-20T08:20:59.881Z,6.45
2023-02-20T08:23:27.748Z,6.39
2023-02-20T08:25:54.885Z,6.30
2023-02-20T08:28:22.275Z,6.22
2023-02-20T08:30:49.311Z,6.09
2023-02-20T08:33:16.416Z,6.26
2023-02-20T08:35:43.620Z,6.16
2023-02-20T08:38:34.587Z,6.00
2023-02-20T08:41:11.997Z,6.12
2023-02-20T08:43:40.875Z,5.99
2023-02-20T08:46:08.455Z,5.92
2023-02-20T08:48:36.133Z,5.89
2023-02-20T08:51:03.598Z,5.82
2023-02-20T08:53:30.933Z,5.90
2023-02-20T08:55:58.093Z,5.86
2023-02-20T08:58:26.385Z,5.69
2023-02-20T09:00:54.833Z,5.56
2023-02-20T09:03:22.551Z,5.64
2023-02-20T09:05:49.862Z,5.65
2023-02-20T09:08:17.631Z,5.53
2023-02-20T09:10:44.936Z,5.37
2023-02-20T09:13:12.195Z,5.29
2023-02-20T09:15:40.085Z,5.27
2023-02-20T09:18:14.002Z,5.27
2023-02-20T09:20:41.785Z,5.21
2023-02-20T09:23:09.489Z,5.12
2023-02-20T09:25:36.788Z,5.06
2023-02-20T09:28:04.310Z,5.07
2023-02-20T09:30:31.514Z,4.97
2023-02-20T09:32:58.665Z,4.95
2023-02-20T09:35:28.917Z,4.94
2023-02-20T09:37:56.634Z,4.84
2023-02-20T09:40:30.079Z,4.89
2023-02-20T09:43:51.138Z,4.82
2023-02-20T09:46:23.610Z,4.87
2023-02-20T09:49:25.215Z,4.83
2023-02-20T09:52:01.010Z,4.88
2023-02-20T09:54:37.257Z,4.69
2023-02-20T09:57:17.305Z,4.59
2023-02-20T09:59:53.095Z,4.68
2023-02-20T10:02:31.217Z,4.72
2023-02-20T10:05:04.656Z,4.57
2023-02-20T10:07:38.705Z,4.58
2023-02-20T10:10:29.746Z,4.60
2023-02-20T10:13:48.107Z,4.57
2023-02-20T10:16:52.626Z,4.49
2023-02-20T10:19:37.294Z,4.46
2023-02-20T10:22:19.861Z,4.52
2023-02-20T10:25:08.081Z,4.48
2023-02-20T10:28:03.273Z,4.60
2023-02-20T10:30:36.919Z,4.55
2023-02-20T10:33:16.475Z,4.46
2023-02-20T10:36:00.743Z,4.52
2023-02-20T10:38:35.888Z,4.55
2023-02-20T10:41:31.966Z,4.61
2023-02-20T10:44:10.787Z,4.47
2023-02-20T10:47:10.291Z,4.60
2023-02-20T10:49:43.133Z,4.56
2023-02-20T10:52:31.730Z,4.57
2023-02-20T10:55:20.982Z,4.56
2023-02-20T10:58:03.638Z,4.52
2023-02-20T11:00:44.693Z,4.50
2023-02-20T11:04:18.260Z,4.49
2023-02-20T11:07:02.843Z,4.51
2023-02-20T11:09:29.915Z,4.49
2023-02-20T11:11:56.991Z,4.45
2023-02-20T11:14:43.644Z,4.48
2023-02-20T11:17:16.212Z,4.51
2023-02-20T11:19:51.036Z,4.41
2023-02-20T11:22:38.164Z,4.34
2023-02-20T11:25:18.734Z,4.26
2023-02-20T11:27:54.385Z,4.33
2023-02-20T11:30:32.449Z,4.25
2023-02-20T11:33:13.887Z,4.25
2023-02-20T11:35:53.332Z,4.31
2023-02-20T11:38:30.086Z,4.28
2023-02-20T11:41:00.712Z,4.28
2023-02-20T11:43:37.322Z,4.39
2023-02-20T11:46:24.255Z,4.42
2023-02-20T11:48:58.744Z,4.41
2023-02-20T11:51:40.150Z,4.43
2023-02-20T11:54:32.322Z,4.56
2023-02-20T11:57:22.306Z,4.56
2023-02-20T11:59:51.915Z,4.67
2023-02-20T12:02:25.525Z,4.66
2023-02-20T12:05:12.797Z,4.73
2023-02-20T12:07:51.984Z,4.75
2023-02-20T12:10:42.981Z,4.87
2023-02-20T12:13:17.355Z,4.86
2023-02-20T12:16:18.705Z,4.94
2023-02-20T12:19:03.156Z,4.94
2023-02-20T12:21:57.927Z,5.05
2023-02-20T12:25:00.206Z,5.05
2023-02-20T12:27:55.049Z,5.07
2023-02-20T12:30:30.966Z,5.16
2023-02-20T12:33:35.848Z,5.20
2023-02-20T12:36:17.826Z,5.20
2023-02-20T12:38:57.561Z,5.27
2023-02-20T12:41:58.309Z,5.40
2023-02-20T12:44:59.094Z,5.54
2023-02-20T12:47:44.097Z,5.51
2023-02-20T12:50:26.275Z,5.51
2023-02-20T12:53:25.939Z,5.49
2023-02-20T12:56:30.789Z,5.56
2023-02-20T12:59:31.446Z,5.58
2023-02-20T13:02:40.941Z,5.62
2023-02-20T13:05:14.454Z,5.64
2023-02-20T13:08:01.609Z,5.71
2023-02-20T13:10:35.035Z,5.68
2023-02-20T13:13:02.597Z,5.82
2023-02-20T13:16:13.515Z,5.89
2023-02-20T13:18:49.382Z,5.83
2023-02-20T13:21:22.927Z,5.96
2023-02-20T13:23:53.149Z,6.07
2023-02-20T13:26:35.606Z,6.26
2023-02-20T13:29:17.773Z,6.19
2023-02-20T13:31:56.630Z,6.21
2023-02-20T13:34:40.137Z,6.17
2023-02-20T13:37:40.038Z,6.16
2023-02-20T13:40:28.805Z,6.37
2023-02-20T13:43:19.504Z,6.24
2023-02-20T13:45:47.097Z,6.26
2023-02-20T13:48:29.090Z,6.35
2023-02-20T13:51:14.732Z,6.36
2023-02-20T13:53:57.236Z,6.41
2023-02-20T13:56:43.660Z,6.51
2023-02-20T13:59:19.437Z,6.49
2023-02-20T14:01:55.748Z,6.65
2023-02-20T14:04:24.325Z,6.60
2023-02-20T14:06:58.868Z,6.65
2023-02-20T14:09:33.516Z,6.65
2023-02-20T14:12:13.404Z,6.81
2023-02-20T14:14:45.956Z,6.79
2023-02-20T14:17:22.186Z,6.71
2023-02-20T14:20:13.025Z,6.83
2023-02-20T14:22:41.268Z,6.94
2023-02-20T14:25:28.176Z,6.80
2023-02-20T14:28:08.023Z,6.83
2023-02-20T14:30:35.227Z,6.77
2023-02-20T14:33:03.314Z,7.01
2023-02-20T14:35:57.834Z,7.08
2023-02-20T14:38:43.953Z,7.10
2023-02-20T14:41:18.281Z,7.14
2023-02-20T14:43:45.406Z,7.22
2023-02-20T14:46:26.797Z,7.02
2023-02-20T14:49:13.762Z,7.21
2023-02-20T14:51:41.281Z,7.17
2023-02-20T14:54:20.892Z,7.32
2023-02-20T14:56:50.191Z,7.35
2023-02-20T14:59:26.125Z,7.43
2023-02-20T15:01:57.949Z,7.33
2023-02-20T15:04:26.742Z,7.57
2023-02-20T15:07:02.142Z,7.46
2023-02-20T15:09:45.998Z,7.66
2023-02-20T15:12:31.464Z,7.45
2023-02-20T15:15:13.960Z,7.56
2023-02-20T15:17:43.438Z,7.57
2023-02-20T15:20:18.432Z,7.47
2023-02-20T15:22:45.813Z,7.63
2023-02-20T15:25:25.192Z,7.62
2023-02-20T15:28:24.644Z,7.69
2023-02-20T15:31:10.015Z,7.58
2023-02-20T15:33:42.847Z,7.76
2023-02-20T15:36:17.446Z,7.66
2023-02-20T15:38:44.529Z,7.67
2023-02-20T15:41:12.246Z,7.71
2023-02-20T15:43:49.668Z,7.74
2023-02-20T15:46:19.137Z,7.84
2023-02-20T15:48:46.877Z,7.90
2023-02-20T15:51:22.159Z,7.93
2023-02-20T15:53:52.642Z,7.81
2023-02-20T15:56:20.522Z,7.84
2023-02-20T15:58:48.731Z,7.87
2023-02-20T16:01:17.113Z,7.83
2023-02-20T16:03:52.383Z,7.78
2023-02-20T16:06:22.759Z,8.01
2023-02-20T16:08:51.158Z,7.90
2023-02-20T16:11:25.387Z,7.95
2023-02-20T16:14:01.233Z,8.06
2023-02-20T16:16:39.043Z,8.10
2023-02-20T16:19:33.365Z,7.92
2023-02-20T16:22:04.024Z,8.09
2023-02-20T16:24:32.702Z,7.94
2023-02-20T16:26:59.784Z,8.13
2023-02-20T16:29:36.505Z,8.14
2023-02-20T16:32:03.540Z,8.32
2023-02-20T16:34:33.008Z,8.25
2023-02-20T16:37:01.737Z,8.28
2023-02-20T16:39:28.816Z,8.23
2023-02-20T16:41:58.494Z,8.30
2023-02-20T16:44:42.281Z,8.13
2023-02-20T16:47:16.919Z,8.13
2023-02-20T16:49:44.024Z,8.12
2023-02-20T16:52:33.898Z,8.14
2023-02-20T16:55:02.886Z,8.27
2023-02-20T16:57:30.259Z,8.22
2023-02-20T17:00:00.768Z,8.27
2023-02-20T17:02:34.090Z,8.28
2023-02-20T17:05:01.717Z,8.27
2023-02-20T17:07:31.080Z,8.20
2023-02-20T17:09:58.386Z,8.21
2023-02-20T17:12:25.552Z,8.29
2023-02-20T17:14:53.806Z,8.27
2023-02-20T17:17:22.167Z,8.10
2023-02-20T17:19:53.004Z,8.11
2023-02-20T17:22:22.357Z,8.04
2023-02-20T17:24:49.838Z,7.99
2023-02-20T17:27:17.268Z,8.12
2023-02-20T17:29:45.648Z,8.08
2023-02-20T17:32:13.956Z,8.08
2023-02-20T17:34:41.291Z,8.15
2023-02-20T17:37:09.778Z,8.24
2023-02-20T17:39:38.517Z,8.06
2023-02-20T17:42:05.881Z,8.15
2023-02-20T17:44:33.365Z,8.18
2023-02-20T17:47:01.551Z,8.07
2023-02-20T17:49:29.048Z,8.13
2023-02-20T17:52:01.066Z,8.07
2023-02-20T17:54:34.345Z,8.15
2023-02-20T17:57:02.390Z,8.06
2023-02-20T17:59:30.570Z,8.12
2023-02-20T18:01:57.636Z,8.21
2023-02-20T18:04:25.918Z,8.06
2023-02-20T18:06:54.449Z,8.11
2023-02-20T18:09:21.803Z,8.07
2023-02-20T18:11:48.917Z,7.98
2023-02-20T18:14:15.986Z,8.18
2023-02-20T18:16:43.357Z,8.15
2023-02-20T18:19:17.773Z,8.15
2023-02-20T18:21:49.934Z,8.17
2023-02-20T18:24:26.556Z,8.13
2023-02-20T18:26:54.549Z,8.18
2023-02-20T18:29:22.939Z,8.21
2023-02-20T18:31:50.348Z,8.21
2023-02-20T18:34:18.359Z,8.13
2023-02-20T18:36:45.427Z,8.20
2023-02-20T18:39:14.049Z,8.21
2023-02-20T18:41:41.643Z,8.11
2023-02-20T18:44:09.334Z,8.07
2023-02-20T18:46:39.843Z,8.25
2023-02-20T18:49:07.638Z,8.07
2023-02-20T18:51:38.642Z,8.06
2023-02-20T18:54:08.906Z,8.02
2023-02-20T18:56:37.941Z,8.05
2023-02-20T18:59:05.166Z,8.00
2023-02-20T19:01:34.033Z,8.19
2023-02-20T19:04:04.106Z,8.17
2023-02-20T19:06:36.867Z,8.33
2023-02-20T19:09:05.020Z,8.22
2023-02-20T19:11:32.019Z,8.27
2023-02-20T19:13:59.773Z,8.37
2023-02-20T19:16:27.257Z,8.30
2023-02-20T19:18:54.311Z,8.17
2023-02-20T19:21:22.199Z,8.23
2023-02-20T19:23:49.513Z,8.37
2023-02-20T19:26:17.126Z,8.50
2023-02-20T19:28:44.347Z,8.54
2023-02-20T19:31:12.792Z,8.53
2023-02-20T19:33:41.176Z,8.60
2023-02-20T19:36:10.399Z,8.68
2023-02-20T19:38:39.307Z,8.60
2023-02-20T19:41:06.627Z,8.81
2023-02-20T19:43:33.881Z,8.84
2023-02-20T19:46:00.903Z,8.78
2023-02-20T19:48:28.541Z,8.74
2023-02-20T19:50:56.833Z,8.71
2023-02-20T19:53:24.102Z,8.82
2023-02-20T19:55:54.486Z,8.69
2023-02-20T19:58:22.130Z,8.61
2023-02-20T20:00:49.638Z,8.63
2023-02-20T20:03:16.828Z,8.76
2023-02-20T20:05:44.164Z,8.86
2023-02-20T20:08:11.636Z,8.57
2023-02-20T20:10:38.702Z,8.61
2023-02-20T20:13:06.660Z,8.55
2023-02-20T20:15:34.671Z,8.57
2023-02-20T20:18:03.264Z,8.62
2023-02-20T20:20:33.134Z,8.54
2023-02-20T20:23:05.407Z,8.73
2023-02-20T20:25:33.220Z,8.64
2023-02-20T20:28:02.832Z,8.55
2023-02-20T20:30:31.978Z,8.70
2023-02-20T20:32:59.988Z,8.49
2023-02-20T20:35:29.172Z,8.76
2023-02-20T20:37:57.149Z,8.58
2023-02-20T20:40:26.530Z,8.39
2023-02-20T20:42:54.445Z,8.49
2023-02-20T20:45:23.558Z,8.46
2023-02-20T20:47:50.895Z,8.54
2023-02-20T20:50:22.543Z,8.60
2023-02-20T20:52:50.442Z,8.61
2023-02-20T20:55:17.970Z,8.58
2023-02-20T20:57:45.223Z,8.40
2023-02-20T21:00:25.970Z,8.36
2023-02-20T21:02:54.497Z,8.52
2023-02-20T21:05:26.452Z,8.52
2023-02-20T21:07:53.983Z,8.50
2023-02-20T21:10:21.306Z,8.48
2023-02-20T21:12:48.511Z,8.59
2023-02-20T21:15:16.429Z,8.49
2023-02-20T21:17:44.413Z,8.56
2023-02-20T21:20:17.130Z,8.43
2023-02-20T21:22:44.285Z,8.44
2023-02-20T21:25:11.822Z,8.43
2023-02-20T21:27:38.986Z,8.46
2023-02-20T21:30:07.228Z,8.51
2023-02-20T21:32:34.287Z,8.46
2023-02-20T21:35:01.604Z,8.36
2023-02-20T21:37:28.596Z,8.59
2023-02-20T21:39:55.627Z,8.43
2023-02-20T21:42:42.877Z,8.49
2023-02-20T21:45:10.250Z,8.54
2023-02-20T21:47:37.358Z,8.41
2023-02-20T21:50:07.422Z,8.37
2023-02-20T21:52:37.531Z,8.37
2023-02-20T21:55:10.838Z,8.35
2023-02-20T21:57:38.040Z,8.29
2023-02-20T22:00:08.217Z,8.56
2023-02-20T22:02:35.401Z,8.58
2023-02-20T22:05:02.542Z,8.53
2023-02-20T22:07:48.069Z,8.30
2023-02-20T22:10:33.840Z,8.32
2023-02-20T22:13:19.523Z,8.29
2023-02-20T22:16:05.824Z,8.42
2023-02-20T22:18:51.714Z,8.59
2023-02-20T22:21:43.258Z,8.41
2023-02-20T22:24:37.839Z,8.47
2023-02-20T22:27:25.813Z,8.25
2023-02-20T22:30:11.862Z,8.44
2023-02-20T22:32:57.670Z,8.40
2023-02-20T22:35:43.394Z,8.42
2023-02-20T22:38:29.229Z,8.50
2023-02-20T22:41:15.153Z,8.46
2023-02-20T22:44:00.913Z,8.63
2023-02-20T22:46:46.555Z,8.46
2023-02-20T22:49:32.225Z,8.39
2023-02-20T22:52:17.656Z,8.32
2023-02-20T22:55:05.262Z,8.26
2023-02-20T22:57:51.814Z,8.52
2023-02-20T23:00:38.342Z,8.56
2023-02-20T23:03:24.135Z,8.52
2023-02-20T23:06:19.012Z,8.60
2023-02-20T23:09:07.899Z,8.46
2023-02-20T23:11:55.692Z,8.56
2023-02-20T23:14:42.067Z,8.56
2023-02-20T23:17:37.446Z,8.61
2023-02-20T23:20:34.542Z,8.43
2023-02-20T23:23:21.080Z,8.52
2023-02-20T23:26:06.671Z,8.49
2023-02-20T23:28:53.134Z,8.38
2023-02-20T23:31:57.600Z,8.43
2023-02-20T23:34:45.142Z,8.36
2023-02-20T23:37:31.367Z,8.27
2023-02-20T23:40:23.973Z,8.36
2023-02-20T23:43:16.276Z,8.19
2023-02-20T23:46:02.087Z,8.23
2023-02-20T23:48:48.545Z,8.36
2023-02-20T23:51:34.090Z,8.39
2023-02-20T23:54:19.952Z,8.37
2023-02-20T23:57:06.035Z,8.40
2023-02-20T23:59:51.960Z,8.28
